sensor_id;sensor_type;location;lat;lon;timestamp;temperature;humidity
8820;DHT22;4446;50.876;4.736;2022-12-18T00:00:57;-6.10;99.90
8820;DHT22;4446;50.876;4.736;2022-12-18T00:03:24;-6.20;99.90
8820;DHT22;4446;50.876;4.736;2022-12-18T00:05:53;-6.30;99.90
8820;DHT22;4446;50.876;4.736;2022-12-18T00:08:19;-6.30;99.90
8820;DHT22;4446;50.876;4.736;2022-12-18T00:10:46;-6.40;99.90
8820;DHT22;4446;50.876;4.736;2022-12-18T00:13:13;-6.50;99.90
8820;DHT22;4446;50.876;4.736;2022-12-18T00:15:40;-6.60;99.90
8820;DHT22;4446;50.876;4.736;2022-12-18T00:18:08;-6.60;99.90
8820;DHT22;4446;50.876;4.736;2022-12-18T00:20:39;-6.70;99.90
8820;DHT22;4446;50.876;4.736;2022-12-18T00:23:07;-6.70;99.90
8820;DHT22;4446;50.876;4.736;2022-12-18T00:25:35;-6.80;99.90
8820;DHT22;4446;50.876;4.736;2022-12-18T00:28:02;-6.80;99.90
8820;DHT22;4446;50.876;4.736;2022-12-18T00:30:30;-6.80;99.90
8820;DHT22;4446;50.876;4.736;2022-12-18T00:32:57;-6.80;99.90
8820;DHT22;4446;50.876;4.736;2022-12-18T00:35:24;-6.80;99.90
8820;DHT22;4446;50.876;4.736;2022-12-18T00:37:51;-6.80;99.90
8820;DHT22;4446;50.876;4.736;2022-12-18T00:40:19;-6.90;99.90
8820;DHT22;4446;50.876;4.736;2022-12-18T00:42:46;-6.90;99.90
8820;DHT22;4446;50.876;4.736;2022-12-18T00:45:30;-6.80;99.90
8820;DHT22;4446;50.876;4.736;2022-12-18T00:47:57;-6.80;99.90
8820;DHT22;4446;50.876;4.736;2022-12-18T00:50:25;-6.80;99.90
8820;DHT22;4446;50.876;4.736;2022-12-18T00:52:52;-6.80;99.90
8820;DHT22;4446;50.876;4.736;2022-12-18T00:55:20;-6.70;99.90
8820;DHT22;4446;50.876;4.736;2022-12-18T00:57:47;-6.70;99.90
8820;DHT22;4446;50.876;4.736;2022-12-18T01:00:15;-6.70;99.90
8820;DHT22;4446;50.876;4.736;2022-12-18T01:02:42;-6.60;99.90
8820;DHT22;4446;50.876;4.736;2022-12-18T01:05:14;-6.50;99.90
8820;DHT22;4446;50.876;4.736;2022-12-18T01:07:41;-6.40;99.90
8820;DHT22;4446;50.876;4.736;2022-12-18T01:10:10;-6.40;99.90
8820;DHT22;4446;50.876;4.736;2022-12-18T01:12:39;-6.40;99.90
8820;DHT22;4446;50.876;4.736;2022-12-18T01:15:07;-6.40;99.90
8820;DHT22;4446;50.876;4.736;2022-12-18T01:17:34;-6.40;99.90
8820;DHT22;4446;50.876;4.736;2022-12-18T01:20:02;-6.40;99.90
8820;DHT22;4446;50.876;4.736;2022-12-18T01:22:29;-6.40;99.90
8820;DHT22;4446;50.876;4.736;2022-12-18T01:24:56;-6.50;99.90
8820;DHT22;4446;50.876;4.736;2022-12-18T01:27:23;-6.60;99.90
8820;DHT22;4446;50.876;4.736;2022-12-18T01:29:51;-6.60;99.90
8820;DHT22;4446;50.876;4.736;2022-12-18T01:32:18;-6.50;99.90
8820;DHT22;4446;50.876;4.736;2022-12-18T01:34:45;-6.50;99.90
8820;DHT22;4446;50.876;4.736;2022-12-18T01:37:12;-6.50;99.90
8820;DHT22;4446;50.876;4.736;2022-12-18T01:39:39;-6.50;99.90
8820;DHT22;4446;50.876;4.736;2022-12-18T01:42:11;-6.50;99.90
8820;DHT22;4446;50.876;4.736;2022-12-18T01:45:08;-6.60;99.90
8820;DHT22;4446;50.876;4.736;2022-12-18T01:47:49;-6.60;99.90
8820;DHT22;4446;50.876;4.736;2022-12-18T01:50:20;-6.70;99.90
8820;DHT22;4446;50.876;4.736;2022-12-18T01:52:50;-6.80;99.90
8820;DHT22;4446;50.876;4.736;2022-12-18T01:55:20;-6.80;99.90
8820;DHT22;4446;50.876;4.736;2022-12-18T01:57:49;-6.90;99.90
8820;DHT22;4446;50.876;4.736;2022-12-18T02:00:21;-6.90;99.90
8820;DHT22;4446;50.876;4.736;2022-12-18T02:02:49;-6.80;99.90
8820;DHT22;4446;50.876;4.736;2022-12-18T02:05:17;-6.80;99.90
8820;DHT22;4446;50.876;4.736;2022-12-18T02:07:53;-6.70;99.90
8820;DHT22;4446;50.876;4.736;2022-12-18T02:10:27;-6.60;99.90
8820;DHT22;4446;50.876;4.736;2022-12-18T02:13:00;-6.60;99.90
8820;DHT22;4446;50.876;4.736;2022-12-18T02:15:35;-6.60;99.90
8820;DHT22;4446;50.876;4.736;2022-12-18T02:18:07;-6.50;99.90
8820;DHT22;4446;50.876;4.736;2022-12-18T02:20:38;-6.40;99.90
8820;DHT22;4446;50.876;4.736;2022-12-18T02:23:19;-6.40;99.90
8820;DHT22;4446;50.876;4.736;2022-12-18T02:26:02;-6.40;99.90
8820;DHT22;4446;50.876;4.736;2022-12-18T02:28:33;-6.40;99.90
8820;DHT22;4446;50.876;4.736;2022-12-18T02:31:04;-6.50;99.90
8820;DHT22;4446;50.876;4.736;2022-12-18T02:33:33;-6.50;99.90
8820;DHT22;4446;50.876;4.736;2022-12-18T02:36:02;-6.50;99.90
8820;DHT22;4446;50.876;4.736;2022-12-18T02:38:30;-6.60;99.90
8820;DHT22;4446;50.876;4.736;2022-12-18T02:40:59;-6.70;99.90
8820;DHT22;4446;50.876;4.736;2022-12-18T02:43:27;-6.80;99.90
8820;DHT22;4446;50.876;4.736;2022-12-18T02:45:56;-6.90;99.90
8820;DHT22;4446;50.876;4.736;2022-12-18T02:48:26;-7.00;99.90
8820;DHT22;4446;50.876;4.736;2022-12-18T02:51:00;-7.00;99.90
8820;DHT22;4446;50.876;4.736;2022-12-18T02:53:36;-7.00;99.90
8820;DHT22;4446;50.876;4.736;2022-12-18T02:56:11;-7.00;99.90
8820;DHT22;4446;50.876;4.736;2022-12-18T02:58:45;-7.10;99.90
8820;DHT22;4446;50.876;4.736;2022-12-18T03:01:16;-7.20;99.90
8820;DHT22;4446;50.876;4.736;2022-12-18T03:03:48;-7.20;99.90
8820;DHT22;4446;50.876;4.736;2022-12-18T03:06:22;-7.30;99.90
8820;DHT22;4446;50.876;4.736;2022-12-18T03:08:54;-7.40;99.90
8820;DHT22;4446;50.876;4.736;2022-12-18T03:11:27;-7.50;99.90
8820;DHT22;4446;50.876;4.736;2022-12-18T03:14:26;-7.60;99.90
8820;DHT22;4446;50.876;4.736;2022-12-18T03:16:56;-7.60;99.90
8820;DHT22;4446;50.876;4.736;2022-12-18T03:19:27;-7.70;99.90
8820;DHT22;4446;50.876;4.736;2022-12-18T03:21:57;-7.70;99.90
8820;DHT22;4446;50.876;4.736;2022-12-18T03:24:27;-7.70;99.90
8820;DHT22;4446;50.876;4.736;2022-12-18T03:27:00;-7.70;99.90
8820;DHT22;4446;50.876;4.736;2022-12-18T03:29:32;-7.70;99.90
8820;DHT22;4446;50.876;4.736;2022-12-18T03:32:04;-7.70;99.90
8820;DHT22;4446;50.876;4.736;2022-12-18T03:34:34;-7.60;99.90
8820;DHT22;4446;50.876;4.736;2022-12-18T03:37:02;-7.50;99.90
8820;DHT22;4446;50.876;4.736;2022-12-18T03:39:29;-7.50;99.90
8820;DHT22;4446;50.876;4.736;2022-12-18T03:42:01;-7.50;99.90
8820;DHT22;4446;50.876;4.736;2022-12-18T03:44:36;-7.50;99.90
8820;DHT22;4446;50.876;4.736;2022-12-18T03:47:09;-7.60;99.90
8820;DHT22;4446;50.876;4.736;2022-12-18T03:49:39;-7.60;99.90
8820;DHT22;4446;50.876;4.736;2022-12-18T03:52:13;-7.60;99.90
8820;DHT22;4446;50.876;4.736;2022-12-18T03:54:43;-7.50;99.90
8820;DHT22;4446;50.876;4.736;2022-12-18T03:57:16;-7.50;99.90
8820;DHT22;4446;50.876;4.736;2022-12-18T03:59:44;-7.50;99.90
8820;DHT22;4446;50.876;4.736;2022-12-18T04:02:15;-7.60;99.90
8820;DHT22;4446;50.876;4.736;2022-12-18T04:04:43;-7.70;99.90
8820;DHT22;4446;50.876;4.736;2022-12-18T04:07:12;-7.70;99.90
8820;DHT22;4446;50.876;4.736;2022-12-18T04:09:41;-7.80;99.90
8820;DHT22;4446;50.876;4.736;2022-12-18T04:12:09;-7.80;99.90
8820;DHT22;4446;50.876;4.736;2022-12-18T04:14:37;-7.80;99.90
8820;DHT22;4446;50.876;4.736;2022-12-18T04:17:04;-7.80;99.90
8820;DHT22;4446;50.876;4.736;2022-12-18T04:19:31;-7.80;99.90
8820;DHT22;4446;50.876;4.736;2022-12-18T04:21:58;-7.80;99.90
8820;DHT22;4446;50.876;4.736;2022-12-18T04:24:25;-7.80;99.90
8820;DHT22;4446;50.876;4.736;2022-12-18T04:26:52;-7.90;99.90
8820;DHT22;4446;50.876;4.736;2022-12-18T04:29:19;-7.90;99.90
8820;DHT22;4446;50.876;4.736;2022-12-18T04:31:47;-7.90;99.90
8820;DHT22;4446;50.876;4.736;2022-12-18T04:34:14;-7.90;99.90
8820;DHT22;4446;50.876;4.736;2022-12-18T04:36:41;-7.90;99.90
8820;DHT22;4446;50.876;4.736;2022-12-18T04:39:08;-7.90;99.90
8820;DHT22;4446;50.876;4.736;2022-12-18T04:41:35;-7.90;99.90
8820;DHT22;4446;50.876;4.736;2022-12-18T04:44:01;-7.90;99.90
8820;DHT22;4446;50.876;4.736;2022-12-18T04:46:28;-8.00;99.90
8820;DHT22;4446;50.876;4.736;2022-12-18T04:48:57;-7.90;99.90
8820;DHT22;4446;50.876;4.736;2022-12-18T04:51:24;-7.90;99.90
8820;DHT22;4446;50.876;4.736;2022-12-18T04:53:50;-7.80;99.90
8820;DHT22;4446;50.876;4.736;2022-12-18T04:56:17;-7.80;99.90
8820;DHT22;4446;50.876;4.736;2022-12-18T04:58:44;-7.90;99.90
8820;DHT22;4446;50.876;4.736;2022-12-18T05:01:12;-7.90;99.90
8820;DHT22;4446;50.876;4.736;2022-12-18T05:03:40;-7.90;99.90
8820;DHT22;4446;50.876;4.736;2022-12-18T05:06:08;-8.00;99.90
8820;DHT22;4446;50.876;4.736;2022-12-18T05:08:35;-8.00;99.90
8820;DHT22;4446;50.876;4.736;2022-12-18T05:11:04;-8.10;99.90
8820;DHT22;4446;50.876;4.736;2022-12-18T05:13:34;-8.10;99.90
8820;DHT22;4446;50.876;4.736;2022-12-18T05:16:02;-8.10;99.90
8820;DHT22;4446;50.876;4.736;2022-12-18T05:18:29;-8.20;99.90
8820;DHT22;4446;50.876;4.736;2022-12-18T05:20:56;-8.20;99.90
8820;DHT22;4446;50.876;4.736;2022-12-18T05:23:25;-8.20;99.90
8820;DHT22;4446;50.876;4.736;2022-12-18T05:25:52;-8.20;99.90
8820;DHT22;4446;50.876;4.736;2022-12-18T05:28:20;-8.30;99.90
8820;DHT22;4446;50.876;4.736;2022-12-18T05:30:48;-8.30;99.90
8820;DHT22;4446;50.876;4.736;2022-12-18T05:33:16;-8.30;99.90
8820;DHT22;4446;50.876;4.736;2022-12-18T05:35:43;-8.30;99.90
8820;DHT22;4446;50.876;4.736;2022-12-18T05:38:10;-8.30;99.90
8820;DHT22;4446;50.876;4.736;2022-12-18T05:40:41;-8.30;99.90
8820;DHT22;4446;50.876;4.736;2022-12-18T05:43:08;-8.20;99.90
8820;DHT22;4446;50.876;4.736;2022-12-18T05:45:37;-8.30;99.90
8820;DHT22;4446;50.876;4.736;2022-12-18T05:48:04;-8.30;99.90
8820;DHT22;4446;50.876;4.736;2022-12-18T05:50:34;-8.30;99.90
8820;DHT22;4446;50.876;4.736;2022-12-18T05:53:01;-8.30;99.90
8820;DHT22;4446;50.876;4.736;2022-12-18T05:55:28;-8.30;99.90
8820;DHT22;4446;50.876;4.736;2022-12-18T05:57:56;-8.30;99.90
8820;DHT22;4446;50.876;4.736;2022-12-18T06:00:23;-8.30;99.90
8820;DHT22;4446;50.876;4.736;2022-12-18T06:02:50;-8.30;99.90
8820;DHT22;4446;50.876;4.736;2022-12-18T06:05:17;-8.30;99.90
8820;DHT22;4446;50.876;4.736;2022-12-18T06:07:44;-8.20;99.90
8820;DHT22;4446;50.876;4.736;2022-12-18T06:10:11;-8.20;99.90
8820;DHT22;4446;50.876;4.736;2022-12-18T06:12:38;-8.20;99.90
8820;DHT22;4446;50.876;4.736;2022-12-18T06:15:07;-8.20;99.90
8820;DHT22;4446;50.876;4.736;2022-12-18T06:17:35;-8.20;99.90
8820;DHT22;4446;50.876;4.736;2022-12-18T06:20:03;-8.20;99.90
8820;DHT22;4446;50.876;4.736;2022-12-18T06:22:31;-8.20;99.90
8820;DHT22;4446;50.876;4.736;2022-12-18T06:24:58;-8.20;99.90
8820;DHT22;4446;50.876;4.736;2022-12-18T06:27:25;-8.20;99.90
8820;DHT22;4446;50.876;4.736;2022-12-18T06:29:52;-8.20;99.90
8820;DHT22;4446;50.876;4.736;2022-12-18T06:32:20;-8.20;99.90
8820;DHT22;4446;50.876;4.736;2022-12-18T06:34:47;-8.30;99.90
8820;DHT22;4446;50.876;4.736;2022-12-18T06:37:14;-8.30;99.90
8820;DHT22;4446;50.876;4.736;2022-12-18T06:39:41;-8.30;99.90
8820;DHT22;4446;50.876;4.736;2022-12-18T06:42:08;-8.30;99.90
8820;DHT22;4446;50.876;4.736;2022-12-18T06:44:35;-8.20;99.90
8820;DHT22;4446;50.876;4.736;2022-12-18T06:47:02;-8.20;99.90
8820;DHT22;4446;50.876;4.736;2022-12-18T06:49:30;-8.10;99.90
8820;DHT22;4446;50.876;4.736;2022-12-18T06:51:57;-8.10;99.90
8820;DHT22;4446;50.876;4.736;2022-12-18T06:54:24;-8.00;99.90
8820;DHT22;4446;50.876;4.736;2022-12-18T06:56:51;-8.00;99.90
8820;DHT22;4446;50.876;4.736;2022-12-18T06:59:18;-7.90;99.90
8820;DHT22;4446;50.876;4.736;2022-12-18T07:01:45;-7.90;99.90
8820;DHT22;4446;50.876;4.736;2022-12-18T07:04:12;-7.90;99.90
8820;DHT22;4446;50.876;4.736;2022-12-18T07:06:40;-7.90;99.90
8820;DHT22;4446;50.876;4.736;2022-12-18T07:09:07;-7.90;99.90
8820;DHT22;4446;50.876;4.736;2022-12-18T07:11:34;-7.90;99.90
8820;DHT22;4446;50.876;4.736;2022-12-18T07:14:02;-7.90;99.90
8820;DHT22;4446;50.876;4.736;2022-12-18T07:16:28;-7.80;99.90
8820;DHT22;4446;50.876;4.736;2022-12-18T07:18:56;-7.80;99.90
8820;DHT22;4446;50.876;4.736;2022-12-18T07:21:23;-7.70;99.90
8820;DHT22;4446;50.876;4.736;2022-12-18T07:23:54;-7.70;99.90
8820;DHT22;4446;50.876;4.736;2022-12-18T07:26:22;-7.60;99.90
8820;DHT22;4446;50.876;4.736;2022-12-18T07:28:49;-7.50;99.90
8820;DHT22;4446;50.876;4.736;2022-12-18T07:31:18;-7.30;99.90
8820;DHT22;4446;50.876;4.736;2022-12-18T07:33:46;-7.20;99.90
8820;DHT22;4446;50.876;4.736;2022-12-18T07:36:13;-7.10;99.90
8820;DHT22;4446;50.876;4.736;2022-12-18T07:38:41;-7.00;99.90
8820;DHT22;4446;50.876;4.736;2022-12-18T07:41:11;-7.00;99.90
8820;DHT22;4446;50.876;4.736;2022-12-18T07:43:40;-7.00;99.90
8820;DHT22;4446;50.876;4.736;2022-12-18T07:46:08;-7.00;99.90
8820;DHT22;4446;50.876;4.736;2022-12-18T07:48:35;-6.90;99.90
8820;DHT22;4446;50.876;4.736;2022-12-18T07:51:04;-6.90;99.90
8820;DHT22;4446;50.876;4.736;2022-12-18T07:53:31;-6.80;99.90
8820;DHT22;4446;50.876;4.736;2022-12-18T07:56:00;-6.80;99.90
8820;DHT22;4446;50.876;4.736;2022-12-18T07:58:29;-6.80;99.90
8820;DHT22;4446;50.876;4.736;2022-12-18T08:01:03;-6.80;99.90
8820;DHT22;4446;50.876;4.736;2022-12-18T08:03:30;-6.70;99.90
8820;DHT22;4446;50.876;4.736;2022-12-18T08:05:59;-6.60;99.90
8820;DHT22;4446;50.876;4.736;2022-12-18T08:08:27;-6.60;99.90
8820;DHT22;4446;50.876;4.736;2022-12-18T08:10:54;-6.50;99.90
8820;DHT22;4446;50.876;4.736;2022-12-18T08:13:21;-6.30;99.90
8820;DHT22;4446;50.876;4.736;2022-12-18T08:15:57;-6.30;99.90
8820;DHT22;4446;50.876;4.736;2022-12-18T08:18:24;-6.20;99.90
8820;DHT22;4446;50.876;4.736;2022-12-18T08:20:51;-6.10;99.90
8820;DHT22;4446;50.876;4.736;2022-12-18T08:23:18;-6.10;99.90
8820;DHT22;4446;50.876;4.736;2022-12-18T08:25:45;-5.90;99.90
8820;DHT22;4446;50.876;4.736;2022-12-18T08:28:12;-5.90;99.90
8820;DHT22;4446;50.876;4.736;2022-12-18T08:30:39;-5.80;99.90
8820;DHT22;4446;50.876;4.736;2022-12-18T08:33:07;-5.50;99.90
8820;DHT22;4446;50.876;4.736;2022-12-18T08:35:35;-5.40;99.90
8820;DHT22;4446;50.876;4.736;2022-12-18T08:38:03;-5.30;99.90
8820;DHT22;4446;50.876;4.736;2022-12-18T08:40:30;-5.10;99.90
8820;DHT22;4446;50.876;4.736;2022-12-18T08:42:57;-5.10;99.90
8820;DHT22;4446;50.876;4.736;2022-12-18T08:45:42;-4.90;99.90
8820;DHT22;4446;50.876;4.736;2022-12-18T08:48:10;-4.70;99.90
8820;DHT22;4446;50.876;4.736;2022-12-18T08:50:37;-4.70;99.90
8820;DHT22;4446;50.876;4.736;2022-12-18T08:53:04;-4.60;99.90
8820;DHT22;4446;50.876;4.736;2022-12-18T08:55:31;-4.50;99.90
8820;DHT22;4446;50.876;4.736;2022-12-18T08:57:58;-4.50;99.90
8820;DHT22;4446;50.876;4.736;2022-12-18T09:00:25;-4.40;99.90
8820;DHT22;4446;50.876;4.736;2022-12-18T09:02:52;-4.30;99.90
8820;DHT22;4446;50.876;4.736;2022-12-18T09:05:20;-4.30;99.90
8820;DHT22;4446;50.876;4.736;2022-12-18T09:07:47;-4.30;99.90
8820;DHT22;4446;50.876;4.736;2022-12-18T09:10:14;-4.20;99.90
8820;DHT22;4446;50.876;4.736;2022-12-18T09:12:41;-4.20;99.90
8820;DHT22;4446;50.876;4.736;2022-12-18T09:15:08;-4.10;99.90
8820;DHT22;4446;50.876;4.736;2022-12-18T09:17:35;-4.00;99.90
8820;DHT22;4446;50.876;4.736;2022-12-18T09:20:03;-4.00;99.90
8820;DHT22;4446;50.876;4.736;2022-12-18T09:22:31;-3.90;99.90
8820;DHT22;4446;50.876;4.736;2022-12-18T09:24:58;-3.80;99.90
8820;DHT22;4446;50.876;4.736;2022-12-18T09:27:25;-3.80;99.90
8820;DHT22;4446;50.876;4.736;2022-12-18T09:29:52;-3.70;99.90
8820;DHT22;4446;50.876;4.736;2022-12-18T09:32:19;-3.60;99.90
8820;DHT22;4446;50.876;4.736;2022-12-18T09:34:46;-3.50;99.90
8820;DHT22;4446;50.876;4.736;2022-12-18T09:37:13;-3.40;99.90
8820;DHT22;4446;50.876;4.736;2022-12-18T09:39:41;-3.30;99.90
8820;DHT22;4446;50.876;4.736;2022-12-18T09:42:11;-3.30;99.90
8820;DHT22;4446;50.876;4.736;2022-12-18T09:44:41;-3.30;99.90
8820;DHT22;4446;50.876;4.736;2022-12-18T09:47:13;-3.20;99.90
8820;DHT22;4446;50.876;4.736;2022-12-18T09:49:44;-3.20;99.90
8820;DHT22;4446;50.876;4.736;2022-12-18T09:52:16;-3.10;99.90
8820;DHT22;4446;50.876;4.736;2022-12-18T09:54:49;-3.10;99.90
8820;DHT22;4446;50.876;4.736;2022-12-18T09:57:19;-3.00;99.90
8820;DHT22;4446;50.876;4.736;2022-12-18T09:59:51;-2.90;99.90
8820;DHT22;4446;50.876;4.736;2022-12-18T10:02:21;-2.80;99.90
8820;DHT22;4446;50.876;4.736;2022-12-18T10:05:05;-2.80;99.90
8820;DHT22;4446;50.876;4.736;2022-12-18T10:10:38;-2.70;99.90
8820;DHT22;4446;50.876;4.736;2022-12-18T10:13:15;-2.60;99.90
8820;DHT22;4446;50.876;4.736;2022-12-18T10:15:54;-2.50;99.90
8820;DHT22;4446;50.876;4.736;2022-12-18T10:18:34;-2.40;99.90
8820;DHT22;4446;50.876;4.736;2022-12-18T10:21:09;-2.40;99.90
8820;DHT22;4446;50.876;4.736;2022-12-18T10:23:41;-2.40;99.90
8820;DHT22;4446;50.876;4.736;2022-12-18T10:26:11;-2.30;99.90
8820;DHT22;4446;50.876;4.736;2022-12-18T10:28:40;-2.20;99.90
8820;DHT22;4446;50.876;4.736;2022-12-18T10:31:15;-2.10;99.90
8820;DHT22;4446;50.876;4.736;2022-12-18T10:33:42;-2.10;99.90
8820;DHT22;4446;50.876;4.736;2022-12-18T10:36:10;-2.10;99.90
8820;DHT22;4446;50.876;4.736;2022-12-18T10:38:37;-2.10;99.90
8820;DHT22;4446;50.876;4.736;2022-12-18T10:41:06;-2.00;99.90
8820;DHT22;4446;50.876;4.736;2022-12-18T10:43:39;-2.00;99.90
8820;DHT22;4446;50.876;4.736;2022-12-18T10:46:15;-2.00;99.90
8820;DHT22;4446;50.876;4.736;2022-12-18T10:48:55;-1.90;99.90
8820;DHT22;4446;50.876;4.736;2022-12-18T10:51:25;-1.90;99.90
8820;DHT22;4446;50.876;4.736;2022-12-18T10:53:55;-1.80;99.90
8820;DHT22;4446;50.876;4.736;2022-12-18T10:56:24;-1.70;99.90
8820;DHT22;4446;50.876;4.736;2022-12-18T10:58:59;-1.60;99.90
8820;DHT22;4446;50.876;4.736;2022-12-18T11:01:27;-1.60;99.90
8820;DHT22;4446;50.876;4.736;2022-12-18T11:04:07;-1.50;99.90
8820;DHT22;4446;50.876;4.736;2022-12-18T11:06:52;-1.40;99.90
8820;DHT22;4446;50.876;4.736;2022-12-18T11:09:22;-1.40;99.90
8820;DHT22;4446;50.876;4.736;2022-12-18T11:11:50;-1.40;99.90
8820;DHT22;4446;50.876;4.736;2022-12-18T11:14:22;-1.30;99.90
8820;DHT22;4446;50.876;4.736;2022-12-18T11:16:51;-1.20;99.90
8820;DHT22;4446;50.876;4.736;2022-12-18T11:19:28;-1.20;99.90
8820;DHT22;4446;50.876;4.736;2022-12-18T11:21:57;-1.10;99.90
8820;DHT22;4446;50.876;4.736;2022-12-18T11:24:29;-1.10;99.90
8820;DHT22;4446;50.876;4.736;2022-12-18T11:26:57;-1.10;99.90
8820;DHT22;4446;50.876;4.736;2022-12-18T11:29:32;-0.90;99.90
8820;DHT22;4446;50.876;4.736;2022-12-18T11:32:31;-0.90;99.90
8820;DHT22;4446;50.876;4.736;2022-12-18T11:35:13;-0.90;99.90
8820;DHT22;4446;50.876;4.736;2022-12-18T11:37:45;-0.70;99.90
8820;DHT22;4446;50.876;4.736;2022-12-18T11:40:16;-0.80;99.90
8820;DHT22;4446;50.876;4.736;2022-12-18T11:42:48;-0.70;99.90
8820;DHT22;4446;50.876;4.736;2022-12-18T11:45:27;-0.70;99.90
8820;DHT22;4446;50.876;4.736;2022-12-18T11:47:58;-0.80;99.90
8820;DHT22;4446;50.876;4.736;2022-12-18T11:50:31;-0.80;99.90
8820;DHT22;4446;50.876;4.736;2022-12-18T11:52:58;-0.70;99.90
8820;DHT22;4446;50.876;4.736;2022-12-18T11:55:32;-0.60;99.90
8820;DHT22;4446;50.876;4.736;2022-12-18T11:58:08;-0.70;99.90
8820;DHT22;4446;50.876;4.736;2022-12-18T12:00:44;-0.60;99.90
8820;DHT22;4446;50.876;4.736;2022-12-18T12:03:38;-0.60;99.90
8820;DHT22;4446;50.876;4.736;2022-12-18T12:06:13;-0.50;99.90
8820;DHT22;4446;50.876;4.736;2022-12-18T12:08:55;-0.50;99.90
8820;DHT22;4446;50.876;4.736;2022-12-18T12:11:28;-0.50;99.90
8820;DHT22;4446;50.876;4.736;2022-12-18T12:14:09;-0.40;99.90
8820;DHT22;4446;50.876;4.736;2022-12-18T12:16:45;-0.40;99.90
8820;DHT22;4446;50.876;4.736;2022-12-18T12:19:26;-0.40;99.90
8820;DHT22;4446;50.876;4.736;2022-12-18T12:22:03;-0.30;99.90
8820;DHT22;4446;50.876;4.736;2022-12-18T12:24:42;-0.20;99.90
8820;DHT22;4446;50.876;4.736;2022-12-18T12:27:18;-0.30;99.90
8820;DHT22;4446;50.876;4.736;2022-12-18T12:29:54;-0.20;99.90
8820;DHT22;4446;50.876;4.736;2022-12-18T12:32:38;-0.10;99.90
8820;DHT22;4446;50.876;4.736;2022-12-18T12:35:17;-0.10;99.90
8820;DHT22;4446;50.876;4.736;2022-12-18T12:37:53;-0.10;99.90
8820;DHT22;4446;50.876;4.736;2022-12-18T12:40:26;-0.10;99.90
8820;DHT22;4446;50.876;4.736;2022-12-18T12:42:56;0.00;99.90
8820;DHT22;4446;50.876;4.736;2022-12-18T12:45:44;0.00;99.90
8820;DHT22;4446;50.876;4.736;2022-12-18T12:48:20;0.10;99.90
8820;DHT22;4446;50.876;4.736;2022-12-18T12:50:50;0.10;99.90
8820;DHT22;4446;50.876;4.736;2022-12-18T12:53:25;0.20;99.90
8820;DHT22;4446;50.876;4.736;2022-12-18T12:55:53;0.20;99.90
8820;DHT22;4446;50.876;4.736;2022-12-18T12:58:28;0.20;99.90
8820;DHT22;4446;50.876;4.736;2022-12-18T13:01:04;0.30;99.90
8820;DHT22;4446;50.876;4.736;2022-12-18T13:03:42;0.40;99.90
8820;DHT22;4446;50.876;4.736;2022-12-18T13:06:18;0.40;99.90
8820;DHT22;4446;50.876;4.736;2022-12-18T13:08:55;0.50;99.90
8820;DHT22;4446;50.876;4.736;2022-12-18T13:11:32;0.50;99.90
8820;DHT22;4446;50.876;4.736;2022-12-18T13:14:28;0.50;99.90
8820;DHT22;4446;50.876;4.736;2022-12-18T13:17:17;0.50;99.90
8820;DHT22;4446;50.876;4.736;2022-12-18T13:20:03;0.50;99.90
8820;DHT22;4446;50.876;4.736;2022-12-18T13:22:32;0.50;99.90
8820;DHT22;4446;50.876;4.736;2022-12-18T13:25:00;0.60;99.90
8820;DHT22;4446;50.876;4.736;2022-12-18T13:27:55;0.50;99.90
8820;DHT22;4446;50.876;4.736;2022-12-18T13:30:47;0.60;99.90
8820;DHT22;4446;50.876;4.736;2022-12-18T13:33:42;0.60;99.90
8820;DHT22;4446;50.876;4.736;2022-12-18T13:36:14;0.60;99.90
8820;DHT22;4446;50.876;4.736;2022-12-18T13:38:42;0.60;99.90
8820;DHT22;4446;50.876;4.736;2022-12-18T13:41:24;0.60;99.90
8820;DHT22;4446;50.876;4.736;2022-12-18T13:43:52;0.70;99.90
8820;DHT22;4446;50.876;4.736;2022-12-18T13:46:26;0.60;99.90
8820;DHT22;4446;50.876;4.736;2022-12-18T13:49:00;0.60;99.90
8820;DHT22;4446;50.876;4.736;2022-12-18T13:51:31;0.50;99.90
8820;DHT22;4446;50.876;4.736;2022-12-18T13:54:00;0.50;99.90
8820;DHT22;4446;50.876;4.736;2022-12-18T13:56:29;0.50;99.90
8820;DHT22;4446;50.876;4.736;2022-12-18T13:59:13;0.50;99.90
8820;DHT22;4446;50.876;4.736;2022-12-18T14:01:50;0.40;99.90
8820;DHT22;4446;50.876;4.736;2022-12-18T14:04:20;0.40;99.90
8820;DHT22;4446;50.876;4.736;2022-12-18T14:06:51;0.40;99.90
8820;DHT22;4446;50.876;4.736;2022-12-18T14:09:23;0.40;99.90
8820;DHT22;4446;50.876;4.736;2022-12-18T14:11:51;0.40;99.90
8820;DHT22;4446;50.876;4.736;2022-12-18T14:14:41;0.40;99.90
8820;DHT22;4446;50.876;4.736;2022-12-18T14:17:09;0.40;99.90
8820;DHT22;4446;50.876;4.736;2022-12-18T14:19:40;0.30;99.90
8820;DHT22;4446;50.876;4.736;2022-12-18T14:22:15;0.30;99.90
8820;DHT22;4446;50.876;4.736;2022-12-18T14:24:42;0.30;99.90
8820;DHT22;4446;50.876;4.736;2022-12-18T14:27:21;0.20;99.90
8820;DHT22;4446;50.876;4.736;2022-12-18T14:29:48;0.20;99.90
8820;DHT22;4446;50.876;4.736;2022-12-18T14:32:17;0.20;99.90
8820;DHT22;4446;50.876;4.736;2022-12-18T14:34:45;0.20;99.90
8820;DHT22;4446;50.876;4.736;2022-12-18T14:37:18;0.20;99.90
8820;DHT22;4446;50.876;4.736;2022-12-18T14:39:58;0.20;99.90
8820;DHT22;4446;50.876;4.736;2022-12-18T14:42:31;0.20;99.90
8820;DHT22;4446;50.876;4.736;2022-12-18T14:45:39;0.20;99.90
8820;DHT22;4446;50.876;4.736;2022-12-18T14:48:07;0.20;99.90
8820;DHT22;4446;50.876;4.736;2022-12-18T14:50:35;0.20;99.90
8820;DHT22;4446;50.876;4.736;2022-12-18T14:53:03;0.10;99.90
8820;DHT22;4446;50.876;4.736;2022-12-18T14:55:30;0.20;99.90
8820;DHT22;4446;50.876;4.736;2022-12-18T14:57:58;0.10;99.90
8820;DHT22;4446;50.876;4.736;2022-12-18T15:00:25;0.10;99.90
8820;DHT22;4446;50.876;4.736;2022-12-18T15:02:54;0.10;99.90
8820;DHT22;4446;50.876;4.736;2022-12-18T15:05:26;0.10;99.90
8820;DHT22;4446;50.876;4.736;2022-12-18T15:07:55;0.10;99.90
8820;DHT22;4446;50.876;4.736;2022-12-18T15:10:25;0.10;99.90
8820;DHT22;4446;50.876;4.736;2022-12-18T15:13:07;0.10;99.90
8820;DHT22;4446;50.876;4.736;2022-12-18T15:15:46;0.10;99.90
8820;DHT22;4446;50.876;4.736;2022-12-18T15:18:15;0.10;99.90
8820;DHT22;4446;50.876;4.736;2022-12-18T15:20:44;0.20;99.90
8820;DHT22;4446;50.876;4.736;2022-12-18T15:23:16;0.30;99.90
8820;DHT22;4446;50.876;4.736;2022-12-18T15:25:45;0.30;99.90
8820;DHT22;4446;50.876;4.736;2022-12-18T15:28:19;0.30;99.90
8820;DHT22;4446;50.876;4.736;2022-12-18T15:31:02;0.30;99.90
8820;DHT22;4446;50.876;4.736;2022-12-18T15:33:32;0.30;99.90
8820;DHT22;4446;50.876;4.736;2022-12-18T15:36:01;0.20;99.90
8820;DHT22;4446;50.876;4.736;2022-12-18T15:38:28;0.20;99.90
8820;DHT22;4446;50.876;4.736;2022-12-18T15:40:57;0.20;99.90
8820;DHT22;4446;50.876;4.736;2022-12-18T15:43:25;0.20;99.90
8820;DHT22;4446;50.876;4.736;2022-12-18T15:46:00;0.30;99.90
8820;DHT22;4446;50.876;4.736;2022-12-18T15:48:27;0.20;99.90
8820;DHT22;4446;50.876;4.736;2022-12-18T15:50:56;0.20;99.90
8820;DHT22;4446;50.876;4.736;2022-12-18T15:53:24;0.40;99.90
8820;DHT22;4446;50.876;4.736;2022-12-18T15:55:52;0.40;99.90
8820;DHT22;4446;50.876;4.736;2022-12-18T15:58:37;0.40;99.90
8820;DHT22;4446;50.876;4.736;2022-12-18T16:01:05;0.50;99.90
8820;DHT22;4446;50.876;4.736;2022-12-18T16:03:32;0.40;99.90
8820;DHT22;4446;50.876;4.736;2022-12-18T16:05:59;0.40;99.90
8820;DHT22;4446;50.876;4.736;2022-12-18T16:08:27;0.40;99.90
8820;DHT22;4446;50.876;4.736;2022-12-18T16:10:55;0.40;99.90
8820;DHT22;4446;50.876;4.736;2022-12-18T16:13:22;0.40;99.90
8820;DHT22;4446;50.876;4.736;2022-12-18T16:15:51;0.50;99.90
8820;DHT22;4446;50.876;4.736;2022-12-18T16:18:18;0.40;99.90
8820;DHT22;4446;50.876;4.736;2022-12-18T16:20:45;0.50;99.90
8820;DHT22;4446;50.876;4.736;2022-12-18T16:23:12;0.50;99.90
8820;DHT22;4446;50.876;4.736;2022-12-18T16:25:39;0.60;99.90
8820;DHT22;4446;50.876;4.736;2022-12-18T16:28:05;0.60;99.90
8820;DHT22;4446;50.876;4.736;2022-12-18T16:30:32;0.60;99.90